Sugarbush Valley, Vermont
Current Conditions -  °F | °C
As of 12:15 PM on Thursday 27 Nov 2014 (Local Time) from K6B0 Reporting Station
Broken Clouds Broken Clouds  
Wind Chill: -4°   Ceiling: 3300
Heat Index: -1°   Visibility: 10mi
Dew Point: -6°   Wind: 6mph
Humidity: 72%   Direction: 340°NNW
Pressure: 29.99"   Gusts: NA
Location:  44.1108°N, 72.8612°W
Report Text: K6B0 271715Z AUTO 34005KT 10SM SCT025 BKN033 BKN047 M01/M05 A2999 RMK AO2 T10111055
Loading
Personal Weather Stations






























Interactive Weather Map New forecast layout! Learn more

10-Day Weather Forecast

Advertisements
Track Severe Weather on mobile